sensor_id;sensor_type;location;lat;lon;timestamp;P1;durP1;ratioP1;P2;durP2;ratioP2
13847;SDS011;6994;49.752;6.094;2023-08-01T00:01:09;4.25;;;1.12;;
13847;SDS011;6994;49.752;6.094;2023-08-01T00:03:36;2.20;;;1.12;;
13847;SDS011;6994;49.752;6.094;2023-08-01T00:06:04;3.03;;;1.50;;
13847;SDS011;6994;49.752;6.094;2023-08-01T00:08:31;3.45;;;1.20;;
13847;SDS011;6994;49.752;6.094;2023-08-01T00:10:58;2.00;;;0.93;;
13847;SDS011;6994;49.752;6.094;2023-08-01T00:13:25;0.82;;;0.80;;
13847;SDS011;6994;49.752;6.094;2023-08-01T00:15:52;0.95;;;0.80;;
13847;SDS011;6994;49.752;6.094;2023-08-01T00:18:20;2.70;;;1.10;;
13847;SDS011;6994;49.752;6.094;2023-08-01T00:20:48;0.70;;;0.70;;
13847;SDS011;6994;49.752;6.094;2023-08-01T00:23:16;1.27;;;0.70;;
13847;SDS011;6994;49.752;6.094;2023-08-01T00:25:43;1.85;;;1.00;;
13847;SDS011;6994;49.752;6.094;2023-08-01T00:28:11;0.90;;;0.90;;
13847;SDS011;6994;49.752;6.094;2023-08-01T00:30:38;0.65;;;0.65;;
13847;SDS011;6994;49.752;6.094;2023-08-01T00:33:05;2.08;;;1.10;;
13847;SDS011;6994;49.752;6.094;2023-08-01T00:35:32;3.83;;;0.90;;
13847;SDS011;6994;49.752;6.094;2023-08-01T00:37:59;0.82;;;0.80;;
13847;SDS011;6994;49.752;6.094;2023-08-01T00:40:33;0.75;;;0.65;;
13847;SDS011;6994;49.752;6.094;2023-08-01T00:43:00;1.75;;;0.70;;
13847;SDS011;6994;49.752;6.094;2023-08-01T00:45:27;1.62;;;0.85;;
13847;SDS011;6994;49.752;6.094;2023-08-01T00:47:54;0.65;;;0.65;;
13847;SDS011;6994;49.752;6.094;2023-08-01T00:50:22;0.57;;;0.50;;
13847;SDS011;6994;49.752;6.094;2023-08-01T00:52:50;1.60;;;0.88;;
13847;SDS011;6994;49.752;6.094;2023-08-01T00:55:16;1.75;;;0.93;;
13847;SDS011;6994;49.752;6.094;2023-08-01T00:57:44;0.98;;;0.70;;
13847;SDS011;6994;49.752;6.094;2023-08-01T01:00:12;1.48;;;1.30;;
13847;SDS011;6994;49.752;6.094;2023-08-01T01:02:39;2.28;;;0.95;;
13847;SDS011;6994;49.752;6.094;2023-08-01T01:05:06;2.15;;;0.70;;
13847;SDS011;6994;49.752;6.094;2023-08-01T01:07:34;2.55;;;1.30;;
13847;SDS011;6994;49.752;6.094;2023-08-01T01:10:01;2.08;;;1.08;;
13847;SDS011;6994;49.752;6.094;2023-08-01T01:12:28;1.37;;;1.27;;
13847;SDS011;6994;49.752;6.094;2023-08-01T01:14:55;1.02;;;0.90;;
13847;SDS011;6994;49.752;6.094;2023-08-01T01:17:22;2.78;;;0.95;;
13847;SDS011;6994;49.752;6.094;2023-08-01T01:19:50;1.33;;;1.20;;
13847;SDS011;6994;49.752;6.094;2023-08-01T01:22:18;0.80;;;0.80;;
13847;SDS011;6994;49.752;6.094;2023-08-01T01:24:46;2.15;;;1.67;;
13847;SDS011;6994;49.752;6.094;2023-08-01T01:27:13;2.10;;;1.50;;
13847;SDS011;6994;49.752;6.094;2023-08-01T01:29:40;2.75;;;1.30;;
13847;SDS011;6994;49.752;6.094;2023-08-01T01:32:07;3.35;;;1.52;;
13847;SDS011;6994;49.752;6.094;2023-08-01T01:34:34;1.83;;;1.27;;
13847;SDS011;6994;49.752;6.094;2023-08-01T01:37:02;2.42;;;0.90;;
13847;SDS011;6994;49.752;6.094;2023-08-01T01:39:29;2.15;;;1.30;;
13847;SDS011;6994;49.752;6.094;2023-08-01T01:41:56;1.90;;;1.40;;
13847;SDS011;6994;49.752;6.094;2023-08-01T01:44:23;0.90;;;0.70;;
13847;SDS011;6994;49.752;6.094;2023-08-01T01:46:50;1.62;;;1.17;;
13847;SDS011;6994;49.752;6.094;2023-08-01T01:49:18;1.40;;;1.00;;
13847;SDS011;6994;49.752;6.094;2023-08-01T01:51:46;1.70;;;0.90;;
13847;SDS011;6994;49.752;6.094;2023-08-01T01:54:14;1.23;;;1.05;;
13847;SDS011;6994;49.752;6.094;2023-08-01T01:56:42;1.30;;;1.10;;
13847;SDS011;6994;49.752;6.094;2023-08-01T01:59:09;0.98;;;0.90;;
13847;SDS011;6994;49.752;6.094;2023-08-01T02:01:37;1.48;;;0.80;;
13847;SDS011;6994;49.752;6.094;2023-08-01T02:04:05;1.08;;;1.00;;
13847;SDS011;6994;49.752;6.094;2023-08-01T02:06:33;0.80;;;0.60;;
13847;SDS011;6994;49.752;6.094;2023-08-01T02:09:00;1.17;;;0.55;;
13847;SDS011;6994;49.752;6.094;2023-08-01T02:11:27;0.90;;;0.70;;
13847;SDS011;6994;49.752;6.094;2023-08-01T02:13:54;0.80;;;0.60;;
13847;SDS011;6994;49.752;6.094;2023-08-01T02:16:21;2.22;;;0.60;;
13847;SDS011;6994;49.752;6.094;2023-08-01T02:18:49;1.17;;;0.50;;
13847;SDS011;6994;49.752;6.094;2023-08-01T02:21:16;0.80;;;0.52;;
13847;SDS011;6994;49.752;6.094;2023-08-01T02:23:43;0.95;;;0.50;;
13847;SDS011;6994;49.752;6.094;2023-08-01T02:26:10;0.52;;;0.45;;
13847;SDS011;6994;49.752;6.094;2023-08-01T02:28:37;0.40;;;0.40;;
13847;SDS011;6994;49.752;6.094;2023-08-01T02:31:05;0.77;;;0.50;;
13847;SDS011;6994;49.752;6.094;2023-08-01T02:33:33;1.12;;;0.40;;
13847;SDS011;6994;49.752;6.094;2023-08-01T02:36:00;0.43;;;0.43;;
13847;SDS011;6994;49.752;6.094;2023-08-01T02:38:27;0.43;;;0.40;;
13847;SDS011;6994;49.752;6.094;2023-08-01T02:40:54;0.82;;;0.57;;
13847;SDS011;6994;49.752;6.094;2023-08-01T02:43:21;2.15;;;0.40;;
13847;SDS011;6994;49.752;6.094;2023-08-01T02:45:49;1.15;;;0.62;;
13847;SDS011;6994;49.752;6.094;2023-08-01T02:48:16;1.40;;;0.70;;
13847;SDS011;6994;49.752;6.094;2023-08-01T02:50:43;0.55;;;0.45;;
13847;SDS011;6994;49.752;6.094;2023-08-01T02:53:10;0.90;;;0.40;;
13847;SDS011;6994;49.752;6.094;2023-08-01T02:55:37;0.50;;;0.50;;
13847;SDS011;6994;49.752;6.094;2023-08-01T02:58:05;0.40;;;0.40;;
13847;SDS011;6994;49.752;6.094;2023-08-01T03:00:32;0.40;;;0.30;;
13847;SDS011;6994;49.752;6.094;2023-08-01T03:03:00;0.73;;;0.30;;
13847;SDS011;6994;49.752;6.094;2023-08-01T03:05:28;0.30;;;0.30;;
13847;SDS011;6994;49.752;6.094;2023-08-01T03:07:55;0.30;;;0.30;;
13847;SDS011;6994;49.752;6.094;2023-08-01T03:10:22;0.75;;;0.37;;
13847;SDS011;6994;49.752;6.094;2023-08-01T03:12:49;3.15;;;0.47;;
13847;SDS011;6994;49.752;6.094;2023-08-01T03:15:17;0.40;;;0.37;;
13847;SDS011;6994;49.752;6.094;2023-08-01T03:17:44;0.60;;;0.40;;
13847;SDS011;6994;49.752;6.094;2023-08-01T03:20:11;1.50;;;0.40;;
13847;SDS011;6994;49.752;6.094;2023-08-01T03:22:38;0.45;;;0.35;;
13847;SDS011;6994;49.752;6.094;2023-08-01T03:25:07;0.57;;;0.30;;
13847;SDS011;6994;49.752;6.094;2023-08-01T03:27:36;0.68;;;0.20;;
13847;SDS011;6994;49.752;6.094;2023-08-01T03:30:03;0.82;;;0.28;;
13847;SDS011;6994;49.752;6.094;2023-08-01T03:32:31;0.30;;;0.30;;
13847;SDS011;6994;49.752;6.094;2023-08-01T03:34:58;1.70;;;0.43;;
13847;SDS011;6994;49.752;6.094;2023-08-01T03:37:25;0.25;;;0.10;;
13847;SDS011;6994;49.752;6.094;2023-08-01T03:39:52;0.70;;;0.40;;
13847;SDS011;6994;49.752;6.094;2023-08-01T03:42:19;0.28;;;0.22;;
13847;SDS011;6994;49.752;6.094;2023-08-01T03:44:47;0.50;;;0.45;;
13847;SDS011;6994;49.752;6.094;2023-08-01T03:47:14;1.55;;;0.22;;
13847;SDS011;6994;49.752;6.094;2023-08-01T03:49:41;0.88;;;0.37;;
13847;SDS011;6994;49.752;6.094;2023-08-01T03:52:09;0.15;;;0.15;;
13847;SDS011;6994;49.752;6.094;2023-08-01T03:54:37;0.55;;;0.40;;
13847;SDS011;6994;49.752;6.094;2023-08-01T03:57:05;0.30;;;0.30;;
13847;SDS011;6994;49.752;6.094;2023-08-01T03:59:32;0.95;;;0.30;;
13847;SDS011;6994;49.752;6.094;2023-08-01T04:01:59;0.35;;;0.20;;
13847;SDS011;6994;49.752;6.094;2023-08-01T04:04:27;0.35;;;0.22;;
13847;SDS011;6994;49.752;6.094;2023-08-01T04:06:54;0.30;;;0.20;;
13847;SDS011;6994;49.752;6.094;2023-08-01T04:09:21;0.95;;;0.22;;
13847;SDS011;6994;49.752;6.094;2023-08-01T04:11:48;0.20;;;0.20;;
13847;SDS011;6994;49.752;6.094;2023-08-01T04:14:15;1.02;;;0.40;;
13847;SDS011;6994;49.752;6.094;2023-08-01T04:16:43;0.17;;;0.17;;
13847;SDS011;6994;49.752;6.094;2023-08-01T04:19:10;0.17;;;0.17;;
13847;SDS011;6994;49.752;6.094;2023-08-01T04:21:38;0.10;;;0.10;;
13847;SDS011;6994;49.752;6.094;2023-08-01T04:24:06;0.50;;;0.35;;
13847;SDS011;6994;49.752;6.094;2023-08-01T04:26:33;1.37;;;0.17;;
13847;SDS011;6994;49.752;6.094;2023-08-01T04:29:00;0.10;;;0.10;;
13847;SDS011;6994;49.752;6.094;2023-08-01T04:31:27;2.00;;;0.22;;
13847;SDS011;6994;49.752;6.094;2023-08-01T04:33:55;0.20;;;0.20;;
13847;SDS011;6994;49.752;6.094;2023-08-01T04:36:22;0.20;;;0.20;;
13847;SDS011;6994;49.752;6.094;2023-08-01T04:38:49;0.40;;;0.40;;
13847;SDS011;6994;49.752;6.094;2023-08-01T04:41:16;0.50;;;0.17;;
13847;SDS011;6994;49.752;6.094;2023-08-01T04:43:43;0.10;;;0.10;;
13847;SDS011;6994;49.752;6.094;2023-08-01T04:46:11;1.08;;;0.20;;
13847;SDS011;6994;49.752;6.094;2023-08-01T04:48:38;0.03;;;0.00;;
13847;SDS011;6994;49.752;6.094;2023-08-01T04:51:05;1.75;;;0.25;;
13847;SDS011;6994;49.752;6.094;2023-08-01T04:53:33;2.28;;;0.22;;
13847;SDS011;6994;49.752;6.094;2023-08-01T04:56:00;1.12;;;0.15;;
13847;SDS011;6994;49.752;6.094;2023-08-01T04:58:27;0.65;;;0.10;;
13847;SDS011;6994;49.752;6.094;2023-08-01T05:00:55;0.10;;;0.10;;
13847;SDS011;6994;49.752;6.094;2023-08-01T05:03:23;2.08;;;0.17;;
13847;SDS011;6994;49.752;6.094;2023-08-01T05:05:50;0.88;;;0.30;;
13847;SDS011;6994;49.752;6.094;2023-08-01T05:08:17;0.93;;;0.30;;
13847;SDS011;6994;49.752;6.094;2023-08-01T05:10:44;0.50;;;0.50;;
13847;SDS011;6994;49.752;6.094;2023-08-01T05:13:11;1.70;;;0.57;;
13847;SDS011;6994;49.752;6.094;2023-08-01T05:15:39;0.88;;;0.50;;
13847;SDS011;6994;49.752;6.094;2023-08-01T05:18:06;0.95;;;0.60;;
13847;SDS011;6994;49.752;6.094;2023-08-01T05:20:33;2.45;;;0.80;;
13847;SDS011;6994;49.752;6.094;2023-08-01T05:23:00;1.67;;;0.90;;
13847;SDS011;6994;49.752;6.094;2023-08-01T05:25:27;1.08;;;0.50;;
13847;SDS011;6994;49.752;6.094;2023-08-01T05:27:55;0.73;;;0.73;;
13847;SDS011;6994;49.752;6.094;2023-08-01T05:30:23;2.95;;;0.95;;
13847;SDS011;6994;49.752;6.094;2023-08-01T05:32:51;1.98;;;0.80;;
13847;SDS011;6994;49.752;6.094;2023-08-01T05:35:19;2.37;;;0.88;;
13847;SDS011;6994;49.752;6.094;2023-08-01T05:37:46;2.97;;;1.02;;
13847;SDS011;6994;49.752;6.094;2023-08-01T05:40:14;1.92;;;0.90;;
13847;SDS011;6994;49.752;6.094;2023-08-01T05:42:41;1.23;;;0.80;;
13847;SDS011;6994;49.752;6.094;2023-08-01T05:45:08;1.35;;;1.10;;
13847;SDS011;6994;49.752;6.094;2023-08-01T05:47:35;1.35;;;0.80;;
13847;SDS011;6994;49.752;6.094;2023-08-01T05:50:03;3.08;;;1.12;;
13847;SDS011;6994;49.752;6.094;2023-08-01T05:52:30;2.08;;;0.90;;
13847;SDS011;6994;49.752;6.094;2023-08-01T05:54:57;2.22;;;1.00;;
13847;SDS011;6994;49.752;6.094;2023-08-01T05:57:25;1.75;;;0.80;;
13847;SDS011;6994;49.752;6.094;2023-08-01T05:59:53;9.85;;;2.37;;
13847;SDS011;6994;49.752;6.094;2023-08-01T06:02:21;3.12;;;1.10;;
13847;SDS011;6994;49.752;6.094;2023-08-01T06:04:49;0.85;;;0.80;;
13847;SDS011;6994;49.752;6.094;2023-08-01T06:07:16;1.77;;;1.10;;
13847;SDS011;6994;49.752;6.094;2023-08-01T06:09:43;1.42;;;0.90;;
13847;SDS011;6994;49.752;6.094;2023-08-01T06:12:10;1.70;;;0.93;;
13847;SDS011;6994;49.752;6.094;2023-08-01T06:14:38;3.47;;;1.55;;
13847;SDS011;6994;49.752;6.094;2023-08-01T06:17:05;2.87;;;1.55;;
13847;SDS011;6994;49.752;6.094;2023-08-01T06:19:32;3.35;;;1.30;;
13847;SDS011;6994;49.752;6.094;2023-08-01T06:21:59;1.98;;;1.00;;
13847;SDS011;6994;49.752;6.094;2023-08-01T06:24:26;4.32;;;1.17;;
13847;SDS011;6994;49.752;6.094;2023-08-01T06:26:54;4.25;;;1.40;;
13847;SDS011;6994;49.752;6.094;2023-08-01T06:29:22;2.28;;;1.40;;
13847;SDS011;6994;49.752;6.094;2023-08-01T06:31:50;1.02;;;0.88;;
13847;SDS011;6994;49.752;6.094;2023-08-01T06:34:18;1.83;;;1.70;;
13847;SDS011;6994;49.752;6.094;2023-08-01T06:36:46;2.30;;;1.62;;
13847;SDS011;6994;49.752;6.094;2023-08-01T06:39:13;2.50;;;1.87;;
13847;SDS011;6994;49.752;6.094;2023-08-01T06:41:40;2.45;;;1.62;;
13847;SDS011;6994;49.752;6.094;2023-08-01T06:44:07;5.20;;;2.35;;
13847;SDS011;6994;49.752;6.094;2023-08-01T06:46:34;4.10;;;1.87;;
13847;SDS011;6994;49.752;6.094;2023-08-01T06:49:02;2.30;;;1.40;;
13847;SDS011;6994;49.752;6.094;2023-08-01T06:51:29;3.28;;;1.65;;
13847;SDS011;6994;49.752;6.094;2023-08-01T06:53:56;2.20;;;1.48;;
13847;SDS011;6994;49.752;6.094;2023-08-01T06:56:23;2.12;;;1.45;;
13847;SDS011;6994;49.752;6.094;2023-08-01T06:58:50;3.60;;;2.42;;
13847;SDS011;6994;49.752;6.094;2023-08-01T07:01:18;3.67;;;2.03;;
13847;SDS011;6994;49.752;6.094;2023-08-01T07:03:45;1.98;;;1.48;;
13847;SDS011;6994;49.752;6.094;2023-08-01T07:06:13;1.42;;;1.17;;
13847;SDS011;6994;49.752;6.094;2023-08-01T07:08:41;6.10;;;1.65;;
13847;SDS011;6994;49.752;6.094;2023-08-01T07:11:08;4.30;;;1.40;;
13847;SDS011;6994;49.752;6.094;2023-08-01T07:13:35;3.40;;;1.80;;
13847;SDS011;6994;49.752;6.094;2023-08-01T07:16:02;2.22;;;1.55;;
13847;SDS011;6994;49.752;6.094;2023-08-01T07:18:30;2.97;;;1.85;;
13847;SDS011;6994;49.752;6.094;2023-08-01T07:21:00;2.72;;;1.80;;
13847;SDS011;6994;49.752;6.094;2023-08-01T07:23:30;3.62;;;2.08;;
13847;SDS011;6994;49.752;6.094;2023-08-01T07:25:57;3.20;;;2.05;;
13847;SDS011;6994;49.752;6.094;2023-08-01T07:28:24;2.40;;;1.83;;
13847;SDS011;6994;49.752;6.094;2023-08-01T07:31:05;4.25;;;2.20;;
13847;SDS011;6994;49.752;6.094;2023-08-01T07:33:31;3.83;;;1.67;;
13847;SDS011;6994;49.752;6.094;2023-08-01T07:35:59;3.53;;;1.85;;
13847;SDS011;6994;49.752;6.094;2023-08-01T07:38:27;2.53;;;1.87;;
13847;SDS011;6994;49.752;6.094;2023-08-01T07:40:54;5.90;;;2.05;;
13847;SDS011;6994;49.752;6.094;2023-08-01T07:43:21;3.70;;;2.15;;
13847;SDS011;6994;49.752;6.094;2023-08-01T07:45:48;4.72;;;1.80;;
13847;SDS011;6994;49.752;6.094;2023-08-01T07:48:15;4.62;;;1.70;;
13847;SDS011;6994;49.752;6.094;2023-08-01T07:50:43;3.58;;;2.28;;
13847;SDS011;6994;49.752;6.094;2023-08-01T07:53:10;4.57;;;2.00;;
13847;SDS011;6994;49.752;6.094;2023-08-01T07:55:37;6.28;;;1.98;;
13847;SDS011;6994;49.752;6.094;2023-08-01T07:58:05;2.42;;;2.00;;
13847;SDS011;6994;49.752;6.094;2023-08-01T08:00:34;4.03;;;2.33;;
13847;SDS011;6994;49.752;6.094;2023-08-01T08:02:59;3.12;;;1.60;;
13847;SDS011;6994;49.752;6.094;2023-08-01T08:05:27;3.55;;;1.77;;
13847;SDS011;6994;49.752;6.094;2023-08-01T08:07:55;6.15;;;2.28;;
13847;SDS011;6994;49.752;6.094;2023-08-01T08:10:22;2.60;;;1.90;;
13847;SDS011;6994;49.752;6.094;2023-08-01T08:12:49;3.33;;;1.60;;
13847;SDS011;6994;49.752;6.094;2023-08-01T08:15:16;2.40;;;1.83;;
13847;SDS011;6994;49.752;6.094;2023-08-01T08:17:43;2.42;;;1.70;;
13847;SDS011;6994;49.752;6.094;2023-08-01T08:20:11;3.10;;;1.95;;
13847;SDS011;6994;49.752;6.094;2023-08-01T08:22:38;4.43;;;1.35;;
13847;SDS011;6994;49.752;6.094;2023-08-01T08:25:06;4.15;;;1.60;;
13847;SDS011;6994;49.752;6.094;2023-08-01T08:27:33;1.60;;;1.50;;
13847;SDS011;6994;49.752;6.094;2023-08-01T08:30:00;3.47;;;2.40;;
13847;SDS011;6994;49.752;6.094;2023-08-01T08:32:28;3.28;;;1.73;;
13847;SDS011;6994;49.752;6.094;2023-08-01T08:34:55;3.85;;;2.15;;
13847;SDS011;6994;49.752;6.094;2023-08-01T08:37:22;2.35;;;1.92;;
13847;SDS011;6994;49.752;6.094;2023-08-01T08:39:49;2.12;;;1.58;;
13847;SDS011;6994;49.752;6.094;2023-08-01T08:42:17;5.55;;;1.98;;
13847;SDS011;6994;49.752;6.094;2023-08-01T08:44:47;3.60;;;2.30;;
13847;SDS011;6994;49.752;6.094;2023-08-01T08:47:13;4.37;;;1.83;;
13847;SDS011;6994;49.752;6.094;2023-08-01T08:49:41;3.45;;;2.33;;
13847;SDS011;6994;49.752;6.094;2023-08-01T08:52:08;4.53;;;2.17;;
13847;SDS011;6994;49.752;6.094;2023-08-01T08:54:35;3.85;;;1.75;;
13847;SDS011;6994;49.752;6.094;2023-08-01T08:57:04;3.58;;;2.05;;
13847;SDS011;6994;49.752;6.094;2023-08-01T08:59:29;2.25;;;1.70;;
13847;SDS011;6994;49.752;6.094;2023-08-01T09:01:57;3.10;;;1.98;;
13847;SDS011;6994;49.752;6.094;2023-08-01T09:04:24;3.33;;;1.90;;
13847;SDS011;6994;49.752;6.094;2023-08-01T09:06:51;6.65;;;1.87;;
13847;SDS011;6994;49.752;6.094;2023-08-01T09:09:18;3.83;;;1.80;;
13847;SDS011;6994;49.752;6.094;2023-08-01T09:11:46;2.67;;;1.70;;
13847;SDS011;6994;49.752;6.094;2023-08-01T09:14:13;4.25;;;1.80;;
13847;SDS011;6994;49.752;6.094;2023-08-01T09:16:40;4.22;;;2.10;;
13847;SDS011;6994;49.752;6.094;2023-08-01T09:19:07;2.03;;;1.80;;
13847;SDS011;6994;49.752;6.094;2023-08-01T09:21:35;3.20;;;1.92;;
13847;SDS011;6994;49.752;6.094;2023-08-01T09:24:08;4.95;;;2.05;;
13847;SDS011;6994;49.752;6.094;2023-08-01T09:26:35;3.03;;;2.00;;
13847;SDS011;6994;49.752;6.094;2023-08-01T09:29:02;4.80;;;1.87;;
13847;SDS011;6994;49.752;6.094;2023-08-01T09:31:31;3.12;;;1.90;;
13847;SDS011;6994;49.752;6.094;2023-08-01T09:33:57;2.80;;;1.77;;
13847;SDS011;6994;49.752;6.094;2023-08-01T09:36:24;3.62;;;1.92;;
13847;SDS011;6994;49.752;6.094;2023-08-01T09:38:51;2.47;;;1.30;;
13847;SDS011;6994;49.752;6.094;2023-08-01T09:41:18;4.32;;;1.85;;
13847;SDS011;6994;49.752;6.094;2023-08-01T09:43:46;3.03;;;1.52;;
13847;SDS011;6994;49.752;6.094;2023-08-01T09:46:13;3.80;;;2.03;;
13847;SDS011;6994;49.752;6.094;2023-08-01T09:48:41;4.60;;;1.80;;
13847;SDS011;6994;49.752;6.094;2023-08-01T09:51:10;2.80;;;1.42;;
13847;SDS011;6994;49.752;6.094;2023-08-01T09:53:51;6.12;;;1.85;;
13847;SDS011;6994;49.752;6.094;2023-08-01T09:56:27;2.22;;;1.52;;
13847;SDS011;6994;49.752;6.094;2023-08-01T09:58:52;2.67;;;1.75;;
13847;SDS011;6994;49.752;6.094;2023-08-01T10:01:19;7.10;;;2.10;;
13847;SDS011;6994;49.752;6.094;2023-08-01T10:03:46;5.10;;;1.50;;
13847;SDS011;6994;49.752;6.094;2023-08-01T10:06:19;4.57;;;2.03;;
13847;SDS011;6994;49.752;6.094;2023-08-01T10:08:49;4.75;;;1.60;;
13847;SDS011;6994;49.752;6.094;2023-08-01T10:11:17;3.20;;;1.50;;
13847;SDS011;6994;49.752;6.094;2023-08-01T10:13:45;3.65;;;1.30;;
13847;SDS011;6994;49.752;6.094;2023-08-01T10:16:12;4.18;;;1.90;;
13847;SDS011;6994;49.752;6.094;2023-08-01T10:18:40;2.50;;;1.80;;
13847;SDS011;6994;49.752;6.094;2023-08-01T10:21:07;4.82;;;2.10;;
13847;SDS011;6994;49.752;6.094;2023-08-01T10:23:34;2.55;;;1.60;;
13847;SDS011;6994;49.752;6.094;2023-08-01T10:26:03;3.08;;;1.62;;
13847;SDS011;6994;49.752;6.094;2023-08-01T10:28:35;3.72;;;2.12;;
13847;SDS011;6994;49.752;6.094;2023-08-01T10:31:14;3.55;;;1.77;;
13847;SDS011;6994;49.752;6.094;2023-08-01T10:33:41;3.30;;;1.80;;
13847;SDS011;6994;49.752;6.094;2023-08-01T10:36:17;2.33;;;1.27;;
13847;SDS011;6994;49.752;6.094;2023-08-01T10:38:51;3.37;;;1.85;;
13847;SDS011;6994;49.752;6.094;2023-08-01T10:41:18;3.60;;;1.77;;
13847;SDS011;6994;49.752;6.094;2023-08-01T10:43:45;3.65;;;2.25;;
13847;SDS011;6994;49.752;6.094;2023-08-01T10:46:12;2.12;;;1.55;;
13847;SDS011;6994;49.752;6.094;2023-08-01T10:48:48;3.58;;;1.48;;
13847;SDS011;6994;49.752;6.094;2023-08-01T10:51:15;2.47;;;1.70;;
13847;SDS011;6994;49.752;6.094;2023-08-01T10:53:42;4.50;;;1.67;;
13847;SDS011;6994;49.752;6.094;2023-08-01T10:56:16;2.83;;;1.67;;
13847;SDS011;6994;49.752;6.094;2023-08-01T10:58:43;4.05;;;1.62;;
13847;SDS011;6994;49.752;6.094;2023-08-01T11:01:11;2.47;;;1.90;;
13847;SDS011;6994;49.752;6.094;2023-08-01T11:03:39;3.53;;;1.62;;
13847;SDS011;6994;49.752;6.094;2023-08-01T11:06:07;3.67;;;1.42;;
13847;SDS011;6994;49.752;6.094;2023-08-01T11:08:37;2.28;;;1.27;;
13847;SDS011;6994;49.752;6.094;2023-08-01T11:11:05;4.28;;;1.10;;
13847;SDS011;6994;49.752;6.094;2023-08-01T11:13:31;2.03;;;1.50;;
13847;SDS011;6994;49.752;6.094;2023-08-01T11:15:58;2.58;;;1.17;;
13847;SDS011;6994;49.752;6.094;2023-08-01T11:18:26;2.92;;;1.40;;
13847;SDS011;6994;49.752;6.094;2023-08-01T11:20:53;2.53;;;1.40;;
13847;SDS011;6994;49.752;6.094;2023-08-01T11:23:27;4.43;;;2.00;;
13847;SDS011;6994;49.752;6.094;2023-08-01T11:25:47;1.50;;;1.25;;
13847;SDS011;6994;49.752;6.094;2023-08-01T11:28:15;2.55;;;1.50;;
13847;SDS011;6994;49.752;6.094;2023-08-01T11:30:42;2.50;;;1.02;;
13847;SDS011;6994;49.752;6.094;2023-08-01T11:33:19;3.95;;;1.30;;
13847;SDS011;6994;49.752;6.094;2023-08-01T11:35:51;1.67;;;1.33;;
13847;SDS011;6994;49.752;6.094;2023-08-01T11:38:18;1.95;;;1.17;;
13847;SDS011;6994;49.752;6.094;2023-08-01T11:40:46;4.57;;;1.40;;
13847;SDS011;6994;49.752;6.094;2023-08-01T11:43:13;2.17;;;1.10;;
13847;SDS011;6994;49.752;6.094;2023-08-01T11:45:47;1.70;;;1.10;;
13847;SDS011;6994;49.752;6.094;2023-08-01T11:48:16;2.37;;;1.10;;
13847;SDS011;6994;49.752;6.094;2023-08-01T11:50:44;1.60;;;0.90;;
13847;SDS011;6994;49.752;6.094;2023-08-01T11:53:17;3.87;;;1.77;;
13847;SDS011;6994;49.752;6.094;2023-08-01T11:55:44;4.50;;;1.58;;
13847;SDS011;6994;49.752;6.094;2023-08-01T11:58:11;3.58;;;1.50;;
13847;SDS011;6994;49.752;6.094;2023-08-01T12:00:38;1.55;;;1.08;;
13847;SDS011;6994;49.752;6.094;2023-08-01T12:03:06;3.33;;;1.30;;
13847;SDS011;6994;49.752;6.094;2023-08-01T12:05:33;3.55;;;1.67;;
13847;SDS011;6994;49.752;6.094;2023-08-01T12:08:12;2.80;;;1.35;;
13847;SDS011;6994;49.752;6.094;2023-08-01T12:10:43;3.90;;;1.30;;
13847;SDS011;6994;49.752;6.094;2023-08-01T12:13:19;3.00;;;1.33;;
13847;SDS011;6994;49.752;6.094;2023-08-01T12:15:49;1.90;;;1.00;;
13847;SDS011;6994;49.752;6.094;2023-08-01T12:20:48;2.95;;;1.40;;
13847;SDS011;6994;49.752;6.094;2023-08-01T12:23:15;3.12;;;1.37;;
13847;SDS011;6994;49.752;6.094;2023-08-01T12:25:43;2.28;;;1.40;;
13847;SDS011;6994;49.752;6.094;2023-08-01T12:28:10;5.80;;;1.10;;
13847;SDS011;6994;49.752;6.094;2023-08-01T12:30:39;4.47;;;1.23;;
13847;SDS011;6994;49.752;6.094;2023-08-01T12:33:08;3.72;;;1.27;;
13847;SDS011;6994;49.752;6.094;2023-08-01T12:35:38;5.10;;;1.60;;
13847;SDS011;6994;49.752;6.094;2023-08-01T12:38:02;3.83;;;1.30;;
13847;SDS011;6994;49.752;6.094;2023-08-01T12:40:29;3.10;;;1.08;;
13847;SDS011;6994;49.752;6.094;2023-08-01T12:42:56;3.00;;;1.40;;
13847;SDS011;6994;49.752;6.094;2023-08-01T12:45:24;2.50;;;1.45;;
13847;SDS011;6994;49.752;6.094;2023-08-01T12:47:51;2.75;;;1.60;;
13847;SDS011;6994;49.752;6.094;2023-08-01T12:50:18;3.33;;;1.30;;
13847;SDS011;6994;49.752;6.094;2023-08-01T12:52:45;2.12;;;1.35;;
13847;SDS011;6994;49.752;6.094;2023-08-01T12:55:12;3.22;;;1.20;;
13847;SDS011;6994;49.752;6.094;2023-08-01T12:57:40;2.00;;;0.70;;
13847;SDS011;6994;49.752;6.094;2023-08-01T13:00:08;2.70;;;0.77;;
13847;SDS011;6994;49.752;6.094;2023-08-01T13:02:35;3.03;;;0.82;;
13847;SDS011;6994;49.752;6.094;2023-08-01T13:05:02;3.28;;;0.80;;
13847;SDS011;6994;49.752;6.094;2023-08-01T13:07:29;4.68;;;0.85;;
13847;SDS011;6994;49.752;6.094;2023-08-01T13:09:57;2.30;;;0.77;;
13847;SDS011;6994;49.752;6.094;2023-08-01T13:12:24;2.17;;;0.80;;
13847;SDS011;6994;49.752;6.094;2023-08-01T13:14:51;1.23;;;0.70;;
13847;SDS011;6994;49.752;6.094;2023-08-01T13:17:18;1.23;;;0.80;;
13847;SDS011;6994;49.752;6.094;2023-08-01T13:19:45;2.22;;;0.50;;
13847;SDS011;6994;49.752;6.094;2023-08-01T13:22:13;0.98;;;0.47;;
13847;SDS011;6994;49.752;6.094;2023-08-01T13:24:40;0.60;;;0.30;;
13847;SDS011;6994;49.752;6.094;2023-08-01T13:27:07;0.80;;;0.70;;
13847;SDS011;6994;49.752;6.094;2023-08-01T13:29:34;1.10;;;0.55;;
13847;SDS011;6994;49.752;6.094;2023-08-01T13:32:02;1.15;;;0.68;;
13847;SDS011;6994;49.752;6.094;2023-08-01T13:34:29;1.00;;;0.65;;
13847;SDS011;6994;49.752;6.094;2023-08-01T13:36:57;0.62;;;0.62;;
13847;SDS011;6994;49.752;6.094;2023-08-01T13:39:24;1.83;;;0.80;;
13847;SDS011;6994;49.752;6.094;2023-08-01T13:41:51;1.83;;;0.60;;
13847;SDS011;6994;49.752;6.094;2023-08-01T13:44:18;2.47;;;1.00;;
13847;SDS011;6994;49.752;6.094;2023-08-01T13:46:45;1.62;;;1.00;;
13847;SDS011;6994;49.752;6.094;2023-08-01T13:49:13;2.35;;;1.30;;
13847;SDS011;6994;49.752;6.094;2023-08-01T13:51:40;2.55;;;1.33;;
13847;SDS011;6994;49.752;6.094;2023-08-01T13:54:07;2.42;;;1.35;;
13847;SDS011;6994;49.752;6.094;2023-08-01T13:56:34;1.90;;;0.95;;
13847;SDS011;6994;49.752;6.094;2023-08-01T13:59:01;3.37;;;1.20;;
13847;SDS011;6994;49.752;6.094;2023-08-01T14:01:29;2.12;;;1.20;;
13847;SDS011;6994;49.752;6.094;2023-08-01T14:03:56;2.60;;;1.45;;
13847;SDS011;6994;49.752;6.094;2023-08-01T14:06:23;1.98;;;0.73;;
13847;SDS011;6994;49.752;6.094;2023-08-01T14:08:50;3.65;;;1.10;;
13847;SDS011;6994;49.752;6.094;2023-08-01T14:11:17;3.22;;;1.12;;
13847;SDS011;6994;49.752;6.094;2023-08-01T14:13:45;1.20;;;0.95;;
13847;SDS011;6994;49.752;6.094;2023-08-01T14:16:12;2.22;;;1.30;;
13847;SDS011;6994;49.752;6.094;2023-08-01T14:18:39;3.53;;;1.17;;
13847;SDS011;6994;49.752;6.094;2023-08-01T14:21:06;2.70;;;0.98;;
13847;SDS011;6994;49.752;6.094;2023-08-01T14:23:33;2.65;;;1.48;;
13847;SDS011;6994;49.752;6.094;2023-08-01T14:26:01;4.22;;;1.17;;
13847;SDS011;6994;49.752;6.094;2023-08-01T14:28:28;1.83;;;1.08;;
13847;SDS011;6994;49.752;6.094;2023-08-01T14:30:55;2.70;;;1.12;;
13847;SDS011;6994;49.752;6.094;2023-08-01T14:33:23;2.58;;;1.20;;
13847;SDS011;6994;49.752;6.094;2023-08-01T14:35:51;1.55;;;1.02;;
13847;SDS011;6994;49.752;6.094;2023-08-01T14:38:19;2.37;;;1.98;;
13847;SDS011;6994;49.752;6.094;2023-08-01T14:40:46;3.55;;;1.37;;
13847;SDS011;6994;49.752;6.094;2023-08-01T14:43:13;2.75;;;0.90;;
13847;SDS011;6994;49.752;6.094;2023-08-01T14:45:41;3.72;;;1.20;;
13847;SDS011;6994;49.752;6.094;2023-08-01T14:48:08;2.75;;;1.67;;
13847;SDS011;6994;49.752;6.094;2023-08-01T14:50:35;2.80;;;1.30;;
13847;SDS011;6994;49.752;6.094;2023-08-01T14:53:02;3.42;;;1.27;;
13847;SDS011;6994;49.752;6.094;2023-08-01T14:55:29;2.75;;;1.25;;
13847;SDS011;6994;49.752;6.094;2023-08-01T14:57:57;2.92;;;1.30;;
13847;SDS011;6994;49.752;6.094;2023-08-01T15:00:24;3.42;;;1.23;;
13847;SDS011;6994;49.752;6.094;2023-08-01T15:02:52;2.20;;;0.95;;
13847;SDS011;6994;49.752;6.094;2023-08-01T15:05:20;3.50;;;1.20;;